QLK2017 YBHI-YSSY
Flight info
| Callsign | QLK2017 |
|---|---|
| Flight time | N/A |
| Altitude | 21000 |
| Route | UBNUB V180 AKMIR |
| Aircraft | DH8D/M-SDE2E3FGRY/S |
Departure
| Time | 2026-04-13 04:27 |
|---|---|
| Airport | Broken Hill Airport (YBHI) |
Arrival
| Time | N/A |
|---|---|
| Airport | Sydney Kingsford Smith International Airport (YSSY) |
| Time | Latitude | Longitude | Altitude | Speed | Heading |
|---|---|---|---|---|---|
| 2026-04-13 03:55 | -31.99908 | 141.47073 | 959 ft | 0 kts | 225° |
| 2026-04-13 04:19 | -31.99923 | 141.47063 | 958 ft | 3 kts | 187° |
| 2026-04-13 04:19 | -31.99948 | 141.47070 | 958 ft | 3 kts | 153° |
| 2026-04-13 04:19 | -31.99963 | 141.47081 | 958 ft | 2 kts | 144° |
| 2026-04-13 04:19 | -31.99986 | 141.47101 | 958 ft | 5 kts | 145° |
| 2026-04-13 04:20 | -32.00017 | 141.47127 | 956 ft | 7 kts | 146° |
| 2026-04-13 04:20 | -32.00067 | 141.47171 | 952 ft | 10 kts | 143° |
| 2026-04-13 04:20 | -32.00129 | 141.47224 | 947 ft | 10 kts | 144° |
| 2026-04-13 04:20 | -32.00167 | 141.47257 | 944 ft | 3 kts | 145° |
| 2026-04-13 04:21 | -32.00173 | 141.47260 | 944 ft | 0 kts | 145° |
| 2026-04-13 04:22 | -32.00176 | 141.47263 | 944 ft | 2 kts | 145° |
| 2026-04-13 04:23 | -32.00184 | 141.47288 | 945 ft | 6 kts | 84° |
| 2026-04-13 04:23 | -32.00170 | 141.47333 | 946 ft | 7 kts | 57° |
| 2026-04-13 04:23 | -32.00135 | 141.47398 | 949 ft | 8 kts | 60° |
| 2026-04-13 04:23 | -32.00110 | 141.47447 | 951 ft | 5 kts | 56° |
| 2026-04-13 04:24 | -32.00092 | 141.47481 | 953 ft | 4 kts | 57° |
| 2026-04-13 04:24 | -32.00059 | 141.47540 | 956 ft | 13 kts | 57° |
| 2026-04-13 04:24 | -31.99991 | 141.47656 | 959 ft | 21 kts | 57° |
| 2026-04-13 04:24 | -31.99915 | 141.47783 | 963 ft | 16 kts | 56° |
| 2026-04-13 04:25 | -31.99859 | 141.47879 | 966 ft | 11 kts | 57° |
| 2026-04-13 04:25 | -31.99817 | 141.47954 | 968 ft | 9 kts | 55° |
| 2026-04-13 04:25 | -31.99781 | 141.48009 | 970 ft | 7 kts | 52° |
| 2026-04-13 04:25 | -31.99788 | 141.48019 | 970 ft | 4 kts | 231° |
| 2026-04-13 04:26 | -31.99795 | 141.48009 | 969 ft | 0 kts | 235° |
| 2026-04-13 04:26 | -31.99962 | 141.47722 | 961 ft | 94 kts | 234° |
| 2026-04-13 04:26 | -32.00476 | 141.46826 | 961 ft | 158 kts | 234° |
| 2026-04-13 04:27 | -32.01104 | 141.45689 | 1436 ft | 173 kts | 232° |
| 2026-04-13 04:27 | -32.01817 | 141.44470 | 1728 ft | 206 kts | 231° |
| 2026-04-13 04:27 | -32.03027 | 141.43463 | 1680 ft | 213 kts | 190° |
| 2026-04-13 04:27 | -32.04407 | 141.43724 | 1775 ft | 203 kts | 148° |
| 2026-04-13 04:28 | -32.05214 | 141.45091 | 1942 ft | 213 kts | 104° |
| 2026-04-13 04:28 | -32.04982 | 141.46815 | 2213 ft | 220 kts | 65° |
| 2026-04-13 04:28 | -32.04282 | 141.48431 | 2567 ft | 220 kts | 71° |
| 2026-04-13 04:28 | -32.03870 | 141.50174 | 2921 ft | 220 kts | 81° |
| 2026-04-13 04:29 | -32.03680 | 141.51962 | 3280 ft | 220 kts | 89° |
| 2026-04-13 04:29 | -32.03664 | 141.53763 | 3630 ft | 221 kts | 94° |
| 2026-04-13 04:29 | -32.03782 | 141.55557 | 3966 ft | 222 kts | 98° |
| 2026-04-13 04:29 | -32.04004 | 141.57364 | 4324 ft | 223 kts | 102° |
| 2026-04-13 04:30 | -32.04301 | 141.59155 | 4671 ft | 224 kts | 104° |
| 2026-04-13 04:30 | -32.04655 | 141.60944 | 5026 ft | 225 kts | 106° |
| 2026-04-13 04:30 | -32.05054 | 141.62733 | 5386 ft | 225 kts | 108° |
| 2026-04-13 04:30 | -32.05483 | 141.64520 | 5717 ft | 227 kts | 108° |
| 2026-04-13 04:31 | -32.05941 | 141.66327 | 6062 ft | 228 kts | 109° |
| 2026-04-13 04:31 | -32.06412 | 141.68118 | 6387 ft | 230 kts | 109° |
| 2026-04-13 04:31 | -32.06898 | 141.69913 | 6714 ft | 232 kts | 110° |
| 2026-04-13 04:31 | -32.07397 | 141.71724 | 7025 ft | 234 kts | 110° |
| 2026-04-13 04:32 | -32.07911 | 141.73567 | 7366 ft | 235 kts | 110° |
| 2026-04-13 04:32 | -32.08428 | 141.75398 | 7694 ft | 236 kts | 110° |
| 2026-04-13 04:32 | -32.08950 | 141.77239 | 8007 ft | 238 kts | 111° |
| 2026-04-13 04:32 | -32.09478 | 141.79086 | 8327 ft | 239 kts | 110° |
| 2026-04-13 04:33 | -32.10015 | 141.80963 | 8626 ft | 242 kts | 111° |
| 2026-04-13 04:33 | -32.10552 | 141.82835 | 8939 ft | 243 kts | 111° |
| 2026-04-13 04:33 | -32.11096 | 141.84729 | 9244 ft | 244 kts | 111° |
| 2026-04-13 04:33 | -32.11645 | 141.86639 | 9560 ft | 245 kts | 111° |
| 2026-04-13 04:34 | -32.12197 | 141.88557 | 9868 ft | 246 kts | 111° |
| 2026-04-13 04:34 | -32.12745 | 141.90460 | 10158 ft | 248 kts | 111° |
| 2026-04-13 04:34 | -32.13301 | 141.92394 | 10458 ft | 249 kts | 111° |
| 2026-04-13 04:34 | -32.13857 | 141.94328 | 10733 ft | 251 kts | 111° |
| 2026-04-13 04:35 | -32.14418 | 141.96281 | 10993 ft | 253 kts | 111° |
| 2026-04-13 04:35 | -32.14991 | 141.98273 | 11261 ft | 255 kts | 111° |
| 2026-04-13 04:35 | -32.15555 | 142.00238 | 11571 ft | 253 kts | 111° |
| 2026-04-13 04:35 | -32.16113 | 142.02190 | 12041 ft | 245 kts | 111° |
| 2026-04-13 04:36 | -32.16655 | 142.04077 | 12307 ft | 246 kts | 111° |
| 2026-04-13 04:36 | -32.17209 | 142.06007 | 12571 ft | 247 kts | 111° |
| 2026-04-13 04:36 | -32.17765 | 142.07945 | 12810 ft | 249 kts | 111° |
| 2026-04-13 04:36 | -32.18318 | 142.09874 | 13044 ft | 250 kts | 111° |
| 2026-04-13 04:37 | -32.18877 | 142.11826 | 13292 ft | 250 kts | 111° |
| 2026-04-13 04:37 | -32.19431 | 142.13762 | 13532 ft | 251 kts | 110° |
| 2026-04-13 04:37 | -32.19998 | 142.15747 | 13773 ft | 252 kts | 111° |
| 2026-04-13 04:37 | -32.20555 | 142.17693 | 13991 ft | 254 kts | 111° |
| 2026-04-13 04:38 | -32.21123 | 142.19682 | 14208 ft | 255 kts | 111° |
| 2026-04-13 04:38 | -32.21694 | 142.21686 | 14432 ft | 256 kts | 111° |
| 2026-04-13 04:38 | -32.22259 | 142.23665 | 14641 ft | 257 kts | 111° |
| 2026-04-13 04:38 | -32.22839 | 142.25702 | 14858 ft | 258 kts | 111° |
| 2026-04-13 04:39 | -32.23409 | 142.27704 | 15057 ft | 259 kts | 111° |
| 2026-04-13 04:39 | -32.23985 | 142.29730 | 15270 ft | 260 kts | 111° |
| 2026-04-13 04:39 | -32.24562 | 142.31757 | 15450 ft | 262 kts | 111° |
| 2026-04-13 04:39 | -32.25145 | 142.33810 | 15652 ft | 262 kts | 111° |
| 2026-04-13 04:40 | -32.25731 | 142.35873 | 15843 ft | 263 kts | 111° |
| 2026-04-13 04:40 | -32.26316 | 142.37935 | 16049 ft | 264 kts | 111° |
| 2026-04-13 04:40 | -32.26899 | 142.39990 | 16247 ft | 265 kts | 111° |
| 2026-04-13 04:40 | -32.27142 | 142.40848 | 16319 ft | 265 kts | 111° |
| 2026-04-13 04:41 | -32.27733 | 142.42937 | 16472 ft | 266 kts | 111° |
| 2026-04-13 04:41 | -32.28319 | 142.45006 | 16631 ft | 266 kts | 111° |
| 2026-04-13 04:41 | -32.28910 | 142.47095 | 16772 ft | 268 kts | 111° |
| 2026-04-13 04:41 | -32.29494 | 142.49164 | 16937 ft | 268 kts | 111° |
| 2026-04-13 04:42 | -32.30094 | 142.51288 | 17079 ft | 269 kts | 111° |
| 2026-04-13 04:42 | -32.30676 | 142.53351 | 17426 ft | 259 kts | 111° |
| 2026-04-13 04:42 | -32.31224 | 142.55307 | 17864 ft | 248 kts | 112° |
| 2026-04-13 04:43 | -32.32865 | 142.61121 | 18262 ft | 251 kts | 112° |
| 2026-04-13 04:43 | -32.33416 | 142.63077 | 18391 ft | 251 kts | 112° |
| 2026-04-13 04:43 | -32.33969 | 142.65039 | 18510 ft | 253 kts | 112° |
| 2026-04-13 04:44 | -32.34533 | 142.67036 | 18521 ft | 258 kts | 111° |
| 2026-04-13 04:44 | -32.35109 | 142.69081 | 18525 ft | 265 kts | 111° |
| 2026-04-13 04:44 | -32.35705 | 142.71194 | 18532 ft | 278 kts | 111° |
| 2026-04-13 04:44 | -32.36334 | 142.73421 | 18532 ft | 292 kts | 111° |
| 2026-04-13 04:45 | -32.36991 | 142.75755 | 18534 ft | 305 kts | 111° |
| 2026-04-13 04:45 | -32.37670 | 142.78175 | 18533 ft | 317 kts | 111° |
| 2026-04-13 04:45 | -32.38376 | 142.80701 | 18533 ft | 327 kts | 111° |
| 2026-04-13 04:45 | -32.39096 | 142.83278 | 18598 ft | 333 kts | 110° |
| 2026-04-13 04:46 | -32.39818 | 142.85875 | 18845 ft | 332 kts | 111° |
| 2026-04-13 04:46 | -32.40542 | 142.88480 | 19049 ft | 333 kts | 110° |
| 2026-04-13 04:46 | -32.41270 | 142.91098 | 19243 ft | 334 kts | 110° |
| 2026-04-13 04:46 | -32.41996 | 142.93707 | 19413 ft | 336 kts | 111° |
| 2026-04-13 04:47 | -32.42728 | 142.96341 | 19600 ft | 337 kts | 111° |
| 2026-04-13 04:47 | -32.43455 | 142.98959 | 19779 ft | 337 kts | 111° |
| 2026-04-13 04:47 | -32.44196 | 143.01631 | 19900 ft | 340 kts | 111° |
| 2026-04-13 04:47 | -32.44929 | 143.04277 | 20091 ft | 340 kts | 111° |
| 2026-04-13 04:48 | -32.45668 | 143.06943 | 20214 ft | 343 kts | 111° |
| 2026-04-13 04:48 | -32.46405 | 143.09605 | 20344 ft | 343 kts | 111° |
| 2026-04-13 04:48 | -32.47152 | 143.12308 | 20437 ft | 344 kts | 111° |
| 2026-04-13 04:48 | -32.47900 | 143.15015 | 20541 ft | 345 kts | 111° |
| 2026-04-13 04:49 | -32.48642 | 143.17705 | 20633 ft | 346 kts | 111° |
| 2026-04-13 04:49 | -32.49388 | 143.20410 | 20715 ft | 347 kts | 111° |
| 2026-04-13 04:49 | -32.50142 | 143.23145 | 20839 ft | 347 kts | 111° |
| 2026-04-13 04:49 | -32.50889 | 143.25858 | 20900 ft | 349 kts | 111° |
| 2026-04-13 04:50 | -32.51644 | 143.28606 | 20984 ft | 349 kts | 111° |
| 2026-04-13 04:50 | -32.52394 | 143.31334 | 21099 ft | 349 kts | 111° |
| 2026-04-13 04:50 | -32.53147 | 143.34076 | 21152 ft | 351 kts | 111° |
| 2026-04-13 04:50 | -32.53905 | 143.36842 | 21197 ft | 353 kts | 111° |
| 2026-04-13 04:51 | -32.54670 | 143.39629 | 21209 ft | 355 kts | 111° |
| 2026-04-13 04:51 | -32.55426 | 143.42389 | 21209 ft | 358 kts | 111° |
| 2026-04-13 04:51 | -32.56196 | 143.45200 | 21209 ft | 360 kts | 111° |
| 2026-04-13 04:51 | -32.56976 | 143.48053 | 21208 ft | 361 kts | 111° |
| 2026-04-13 04:52 | -32.57754 | 143.50906 | 21206 ft | 362 kts | 111° |
| 2026-04-13 04:52 | -32.58531 | 143.53757 | 21205 ft | 363 kts | 111° |
| 2026-04-13 04:52 | -32.59305 | 143.56599 | 21203 ft | 364 kts | 111° |
| 2026-04-13 04:52 | -32.60084 | 143.59464 | 21202 ft | 365 kts | 111° |
| 2026-04-13 04:53 | -32.60868 | 143.62344 | 21202 ft | 366 kts | 111° |
| 2026-04-13 04:53 | -32.61646 | 143.65208 | 21203 ft | 366 kts | 111° |
| 2026-04-13 04:53 | -32.62437 | 143.68127 | 21203 ft | 366 kts | 111° |
| 2026-04-13 04:53 | -32.63217 | 143.71005 | 21202 ft | 366 kts | 111° |
| 2026-04-13 04:54 | -32.63985 | 143.73843 | 21204 ft | 366 kts | 111° |
| 2026-04-13 04:54 | -32.64764 | 143.76724 | 21205 ft | 366 kts | 111° |
| 2026-04-13 04:54 | -32.65549 | 143.79627 | 21203 ft | 366 kts | 111° |
| 2026-04-13 04:54 | -32.66317 | 143.82471 | 21203 ft | 366 kts | 111° |
| 2026-04-13 04:55 | -32.67100 | 143.85378 | 21204 ft | 366 kts | 111° |
| 2026-04-13 04:55 | -32.67875 | 143.88251 | 21199 ft | 366 kts | 111° |
| 2026-04-13 04:55 | -32.68648 | 143.91107 | 21202 ft | 366 kts | 111° |
| 2026-04-13 04:55 | -32.69427 | 143.93993 | 21199 ft | 366 kts | 111° |
| 2026-04-13 04:56 | -32.70204 | 143.96870 | 21201 ft | 366 kts | 111° |
| 2026-04-13 04:56 | -32.70984 | 143.99764 | 21203 ft | 366 kts | 111° |
| 2026-04-13 04:56 | -32.71764 | 144.02660 | 21200 ft | 366 kts | 111° |
| 2026-04-13 04:56 | -32.72536 | 144.05531 | 21197 ft | 366 kts | 111° |
| 2026-04-13 04:57 | -32.73306 | 144.08397 | 21198 ft | 366 kts | 111° |
| 2026-04-13 04:57 | -32.74088 | 144.11307 | 21201 ft | 366 kts | 111° |
| 2026-04-13 04:57 | -32.74866 | 144.14210 | 21200 ft | 366 kts | 111° |
| 2026-04-13 04:57 | -32.75630 | 144.17062 | 21197 ft | 366 kts | 111° |
| 2026-04-13 04:58 | -32.76405 | 144.19960 | 21194 ft | 366 kts | 111° |
| 2026-04-13 04:58 | -32.77179 | 144.22858 | 21201 ft | 366 kts | 111° |
| 2026-04-13 04:58 | -32.77949 | 144.25742 | 21199 ft | 366 kts | 111° |
| 2026-04-13 04:58 | -32.78717 | 144.28621 | 21192 ft | 366 kts | 111° |
| 2026-04-13 04:59 | -32.79484 | 144.31497 | 21194 ft | 366 kts | 111° |
| 2026-04-13 04:59 | -32.80246 | 144.34361 | 21192 ft | 362 kts | 111° |
| 2026-04-13 04:59 | -32.81001 | 144.37212 | 21196 ft | 359 kts | 111° |
| 2026-04-13 04:59 | -32.81741 | 144.40006 | 21190 ft | 356 kts | 111° |
| 2026-04-13 05:00 | -32.82483 | 144.42804 | 21196 ft | 353 kts | 111° |
| 2026-04-13 05:00 | -32.83219 | 144.45581 | 21192 ft | 351 kts | 111° |
| 2026-04-13 05:00 | -32.83947 | 144.48331 | 21198 ft | 349 kts | 112° |
| 2026-04-13 05:00 | -32.84676 | 144.51088 | 21197 ft | 348 kts | 112° |
| 2026-04-13 05:01 | -32.85403 | 144.53839 | 21194 ft | 347 kts | 111° |
| 2026-04-13 05:01 | -32.86129 | 144.56586 | 21195 ft | 345 kts | 112° |
| 2026-04-13 05:01 | -32.86847 | 144.59308 | 21197 ft | 344 kts | 111° |
| 2026-04-13 05:01 | -32.87558 | 144.62006 | 21194 ft | 343 kts | 111° |
| 2026-04-13 05:02 | -32.88267 | 144.64697 | 21200 ft | 343 kts | 112° |
| 2026-04-13 05:02 | -32.88981 | 144.67407 | 21194 ft | 342 kts | 111° |
| 2026-04-13 05:02 | -32.89691 | 144.70113 | 21199 ft | 341 kts | 111° |
| 2026-04-13 05:02 | -32.90406 | 144.72835 | 21199 ft | 341 kts | 111° |
| 2026-04-13 05:03 | -32.91109 | 144.75514 | 21196 ft | 340 kts | 111° |
| 2026-04-13 05:03 | -32.91817 | 144.78217 | 21197 ft | 340 kts | 111° |
| 2026-04-13 05:03 | -32.92513 | 144.80876 | 21196 ft | 339 kts | 111° |
| 2026-04-13 05:03 | -32.93221 | 144.83585 | 21204 ft | 339 kts | 111° |
| 2026-04-13 05:04 | -32.93919 | 144.86255 | 21194 ft | 339 kts | 111° |
| 2026-04-13 05:04 | -32.94626 | 144.88960 | 21188 ft | 339 kts | 111° |
| 2026-04-13 05:04 | -32.95327 | 144.91650 | 21190 ft | 339 kts | 111° |
| 2026-04-13 05:04 | -32.96024 | 144.94324 | 21191 ft | 339 kts | 111° |
| 2026-04-13 05:05 | -32.96727 | 144.97028 | 21187 ft | 339 kts | 111° |
| 2026-04-13 05:05 | -32.97424 | 144.99709 | 21183 ft | 339 kts | 111° |
| 2026-04-13 05:05 | -32.98124 | 145.02403 | 21186 ft | 339 kts | 111° |
| 2026-04-13 05:05 | -32.98819 | 145.05083 | 21183 ft | 339 kts | 111° |
| 2026-04-13 05:06 | -32.99522 | 145.07794 | 21181 ft | 338 kts | 111° |
| 2026-04-13 05:06 | -33.00213 | 145.10463 | 21183 ft | 338 kts | 111° |
| 2026-04-13 05:06 | -33.00916 | 145.13179 | 21179 ft | 338 kts | 111° |
| 2026-04-13 05:06 | -33.01603 | 145.15839 | 21180 ft | 338 kts | 111° |
| 2026-04-13 05:07 | -33.02293 | 145.18514 | 21177 ft | 338 kts | 111° |
| 2026-04-13 05:07 | -33.02988 | 145.21205 | 21182 ft | 338 kts | 111° |
| 2026-04-13 05:07 | -33.03680 | 145.23891 | 21181 ft | 338 kts | 111° |
| 2026-04-13 05:07 | -33.04365 | 145.26550 | 21176 ft | 338 kts | 111° |
| 2026-04-13 05:08 | -33.05056 | 145.29237 | 21177 ft | 338 kts | 111° |
| 2026-04-13 05:08 | -33.05750 | 145.31938 | 21177 ft | 338 kts | 111° |
| 2026-04-13 05:08 | -33.06435 | 145.34610 | 21178 ft | 338 kts | 111° |
| 2026-04-13 05:08 | -33.07120 | 145.37280 | 21174 ft | 338 kts | 111° |
| 2026-04-13 05:09 | -33.07803 | 145.39947 | 21172 ft | 338 kts | 111° |
| 2026-04-13 05:09 | -33.08494 | 145.42647 | 21171 ft | 338 kts | 111° |
| 2026-04-13 05:09 | -33.09181 | 145.45337 | 21173 ft | 337 kts | 111° |
| 2026-04-13 05:09 | -33.09870 | 145.48032 | 21173 ft | 337 kts | 112° |
| 2026-04-13 05:10 | -33.10553 | 145.50709 | 21173 ft | 338 kts | 112° |
| 2026-04-13 05:10 | -33.11236 | 145.53387 | 21171 ft | 338 kts | 111° |
| 2026-04-13 05:10 | -33.11917 | 145.56065 | 21177 ft | 338 kts | 111° |
| 2026-04-13 05:10 | -33.12606 | 145.58772 | 21173 ft | 338 kts | 111° |
| 2026-04-13 05:11 | -33.13280 | 145.61427 | 21168 ft | 339 kts | 111° |
| 2026-04-13 05:11 | -33.13967 | 145.64131 | 21168 ft | 339 kts | 111° |
| 2026-04-13 05:11 | -33.14648 | 145.66820 | 21166 ft | 338 kts | 111° |
| 2026-04-13 05:11 | -33.15324 | 145.69484 | 21166 ft | 338 kts | 111° |
| 2026-04-13 05:12 | -33.16010 | 145.72197 | 21171 ft | 338 kts | 111° |
| 2026-04-13 05:12 | -33.16685 | 145.74866 | 21168 ft | 338 kts | 111° |
| 2026-04-13 05:12 | -33.17361 | 145.77542 | 21167 ft | 338 kts | 111° |
| 2026-04-13 05:12 | -33.18038 | 145.80226 | 21167 ft | 338 kts | 111° |
| 2026-04-13 05:13 | -33.18715 | 145.82912 | 21166 ft | 337 kts | 111° |
| 2026-04-13 05:13 | -33.19391 | 145.85600 | 21166 ft | 337 kts | 111° |
| 2026-04-13 05:13 | -33.20068 | 145.88290 | 21164 ft | 337 kts | 111° |
| 2026-04-13 05:13 | -33.20740 | 145.90964 | 21163 ft | 337 kts | 111° |
| 2026-04-13 05:14 | -33.21415 | 145.93654 | 21166 ft | 337 kts | 111° |
| 2026-04-13 05:14 | -33.22082 | 145.96315 | 21165 ft | 337 kts | 111° |
| 2026-04-13 05:14 | -33.22757 | 145.99008 | 21166 ft | 337 kts | 111° |
| 2026-04-13 05:14 | -33.23426 | 146.01685 | 21166 ft | 337 kts | 111° |
| 2026-04-13 05:15 | -33.24093 | 146.04352 | 21163 ft | 337 kts | 111° |
| 2026-04-13 05:15 | -33.24762 | 146.07033 | 21164 ft | 337 kts | 111° |
| 2026-04-13 05:15 | -33.25437 | 146.09737 | 21163 ft | 337 kts | 111° |
| 2026-04-13 05:15 | -33.26104 | 146.12415 | 21164 ft | 337 kts | 111° |
| 2026-04-13 05:16 | -33.26770 | 146.15091 | 21163 ft | 337 kts | 111° |
| 2026-04-13 05:16 | -33.27434 | 146.17761 | 21167 ft | 337 kts | 111° |
| 2026-04-13 05:16 | -33.28106 | 146.20462 | 21166 ft | 337 kts | 111° |
| 2026-04-13 05:16 | -33.28775 | 146.23158 | 21168 ft | 337 kts | 111° |
| 2026-04-13 05:17 | -33.29443 | 146.25851 | 21166 ft | 337 kts | 111° |
| 2026-04-13 05:17 | -33.30108 | 146.28538 | 21164 ft | 337 kts | 111° |
| 2026-04-13 05:17 | -33.30772 | 146.31220 | 21167 ft | 337 kts | 111° |
| 2026-04-13 05:17 | -33.31440 | 146.33922 | 21165 ft | 336 kts | 111° |
| 2026-04-13 05:18 | -33.32111 | 146.36641 | 21163 ft | 336 kts | 111° |
| 2026-04-13 05:18 | -33.32772 | 146.39325 | 21164 ft | 336 kts | 111° |
| 2026-04-13 05:18 | -33.33431 | 146.41997 | 21165 ft | 336 kts | 111° |
| 2026-04-13 05:18 | -33.34096 | 146.44699 | 21166 ft | 336 kts | 111° |
| 2026-04-13 05:19 | -33.34761 | 146.47403 | 21163 ft | 337 kts | 111° |
| 2026-04-13 05:19 | -33.35415 | 146.50061 | 21161 ft | 337 kts | 111° |
| 2026-04-13 05:19 | -33.36077 | 146.52759 | 21164 ft | 337 kts | 111° |
| 2026-04-13 05:19 | -33.36733 | 146.55438 | 21164 ft | 337 kts | 111° |
| 2026-04-13 05:20 | -33.37394 | 146.58134 | 21165 ft | 337 kts | 111° |
| 2026-04-13 05:20 | -33.38049 | 146.60811 | 21165 ft | 337 kts | 111° |
| 2026-04-13 05:20 | -33.38716 | 146.63544 | 21164 ft | 336 kts | 111° |
| 2026-04-13 05:20 | -33.39366 | 146.66205 | 21165 ft | 336 kts | 111° |
| 2026-04-13 05:21 | -33.40023 | 146.68901 | 21166 ft | 336 kts | 111° |
| 2026-04-13 05:21 | -33.40674 | 146.71573 | 21167 ft | 336 kts | 111° |
| 2026-04-13 05:21 | -33.41325 | 146.74243 | 21163 ft | 336 kts | 111° |
| 2026-04-13 05:21 | -33.41976 | 146.76927 | 21162 ft | 335 kts | 111° |
| 2026-04-13 05:22 | -33.42627 | 146.79604 | 21163 ft | 335 kts | 111° |
| 2026-04-13 05:22 | -33.43283 | 146.82306 | 21164 ft | 335 kts | 111° |
| 2026-04-13 05:22 | -33.43932 | 146.84982 | 21162 ft | 335 kts | 111° |
| 2026-04-13 05:22 | -33.44581 | 146.87663 | 21162 ft | 335 kts | 111° |
| 2026-04-13 05:23 | -33.45226 | 146.90334 | 21163 ft | 335 kts | 111° |
| 2026-04-13 05:23 | -33.45869 | 146.92993 | 21163 ft | 335 kts | 111° |
| 2026-04-13 05:23 | -33.46525 | 146.95709 | 21166 ft | 335 kts | 111° |
| 2026-04-13 05:23 | -33.47165 | 146.98364 | 21159 ft | 335 kts | 111° |
| 2026-04-13 05:24 | -33.47815 | 147.01062 | 21166 ft | 335 kts | 111° |
| 2026-04-13 05:24 | -33.48465 | 147.03764 | 21173 ft | 335 kts | 111° |
| 2026-04-13 05:24 | -33.49110 | 147.06445 | 21170 ft | 335 kts | 111° |
| 2026-04-13 05:24 | -33.49749 | 147.09109 | 21172 ft | 335 kts | 111° |
| 2026-04-13 05:25 | -33.50395 | 147.11801 | 21167 ft | 335 kts | 111° |
| 2026-04-13 05:25 | -33.51042 | 147.14499 | 21165 ft | 335 kts | 111° |
| 2026-04-13 05:25 | -33.51687 | 147.17194 | 21160 ft | 335 kts | 111° |
| 2026-04-13 05:25 | -33.52329 | 147.19879 | 21160 ft | 335 kts | 111° |
| 2026-04-13 05:26 | -33.52960 | 147.22523 | 21158 ft | 335 kts | 111° |
| 2026-04-13 05:26 | -33.53612 | 147.25253 | 21157 ft | 336 kts | 111° |
| 2026-04-13 05:26 | -33.54253 | 147.27942 | 21154 ft | 336 kts | 111° |
| 2026-04-13 05:26 | -33.54892 | 147.30626 | 21153 ft | 336 kts | 111° |
| 2026-04-13 05:27 | -33.55535 | 147.33330 | 21146 ft | 336 kts | 111° |
| 2026-04-13 05:27 | -33.56171 | 147.36008 | 21144 ft | 337 kts | 111° |
| 2026-04-13 05:27 | -33.56817 | 147.38716 | 21148 ft | 341 kts | 111° |
| 2026-04-13 05:27 | -33.57477 | 147.41489 | 21150 ft | 346 kts | 111° |
| 2026-04-13 05:28 | -33.58133 | 147.44249 | 21143 ft | 349 kts | 111° |
| 2026-04-13 05:28 | -33.58796 | 147.47051 | 21144 ft | 352 kts | 111° |
| 2026-04-13 05:28 | -33.59468 | 147.49893 | 21143 ft | 354 kts | 111° |
| 2026-04-13 05:28 | -33.60138 | 147.52731 | 21143 ft | 356 kts | 111° |
| 2026-04-13 05:29 | -33.60815 | 147.55600 | 21140 ft | 357 kts | 111° |
| 2026-04-13 05:29 | -33.61488 | 147.58460 | 21136 ft | 359 kts | 111° |
| 2026-04-13 05:29 | -33.62163 | 147.61330 | 21137 ft | 359 kts | 111° |
| 2026-04-13 05:29 | -33.62846 | 147.64237 | 21134 ft | 360 kts | 111° |
| 2026-04-13 05:30 | -33.63530 | 147.67156 | 21137 ft | 361 kts | 110° |
| 2026-04-13 05:30 | -33.64209 | 147.70055 | 21136 ft | 361 kts | 111° |
| 2026-04-13 05:30 | -33.64886 | 147.72946 | 21135 ft | 362 kts | 110° |
| 2026-04-13 05:30 | -33.65566 | 147.75854 | 21132 ft | 362 kts | 110° |
| 2026-04-13 05:31 | -33.66246 | 147.78764 | 21139 ft | 362 kts | 110° |
| 2026-04-13 05:31 | -33.66930 | 147.81697 | 21133 ft | 362 kts | 111° |
| 2026-04-13 05:31 | -33.67616 | 147.84639 | 21133 ft | 362 kts | 111° |
| 2026-04-13 05:31 | -33.68293 | 147.87547 | 21134 ft | 363 kts | 111° |
| 2026-04-13 05:32 | -33.68965 | 147.90439 | 21130 ft | 363 kts | 111° |
| 2026-04-13 05:32 | -33.69650 | 147.93388 | 21131 ft | 363 kts | 111° |
| 2026-04-13 05:32 | -33.70327 | 147.96306 | 21127 ft | 363 kts | 111° |
| 2026-04-13 05:32 | -33.71002 | 147.99220 | 21129 ft | 363 kts | 111° |
| 2026-04-13 05:33 | -33.71677 | 148.02139 | 21131 ft | 363 kts | 111° |
| 2026-04-13 05:33 | -33.72351 | 148.05054 | 21128 ft | 363 kts | 111° |
| 2026-04-13 05:33 | -33.73034 | 148.08011 | 21126 ft | 363 kts | 111° |
| 2026-04-13 05:33 | -33.73712 | 148.10950 | 21126 ft | 364 kts | 111° |
| 2026-04-13 05:34 | -33.74387 | 148.13881 | 21126 ft | 364 kts | 111° |
| 2026-04-13 05:34 | -33.75060 | 148.16808 | 21125 ft | 364 kts | 111° |
| 2026-04-13 05:34 | -33.75732 | 148.19733 | 21126 ft | 364 kts | 111° |
| 2026-04-13 05:34 | -33.76408 | 148.22678 | 21124 ft | 365 kts | 111° |
| 2026-04-13 05:35 | -33.77078 | 148.25604 | 21124 ft | 364 kts | 111° |
| 2026-04-13 05:35 | -33.77755 | 148.28561 | 21122 ft | 365 kts | 111° |
| 2026-04-13 05:35 | -33.78424 | 148.31490 | 21123 ft | 365 kts | 111° |
| 2026-04-13 05:35 | -33.79099 | 148.34445 | 21126 ft | 365 kts | 111° |
| 2026-04-13 05:36 | -33.79763 | 148.37354 | 21125 ft | 364 kts | 111° |
| 2026-04-13 05:36 | -33.80434 | 148.40299 | 21126 ft | 364 kts | 111° |
| 2026-04-13 05:36 | -33.81103 | 148.43240 | 21125 ft | 364 kts | 111° |
| 2026-04-13 05:36 | -33.81770 | 148.46175 | 21126 ft | 364 kts | 111° |
| 2026-04-13 05:37 | -33.82439 | 148.49126 | 21120 ft | 363 kts | 111° |
| 2026-04-13 05:37 | -33.83103 | 148.52055 | 21125 ft | 363 kts | 111° |
| 2026-04-13 05:37 | -33.83763 | 148.54967 | 21123 ft | 363 kts | 111° |
| 2026-04-13 05:37 | -33.84432 | 148.57925 | 21119 ft | 363 kts | 111° |
| 2026-04-13 05:38 | -33.85092 | 148.60846 | 21123 ft | 363 kts | 111° |
| 2026-04-13 05:38 | -33.85751 | 148.63765 | 21127 ft | 363 kts | 111° |
| 2026-04-13 05:38 | -33.86410 | 148.66692 | 21119 ft | 363 kts | 111° |
| 2026-04-13 05:38 | -33.87078 | 148.69659 | 21117 ft | 363 kts | 111° |
| 2026-04-13 05:39 | -33.87734 | 148.72575 | 21118 ft | 363 kts | 111° |
| 2026-04-13 05:39 | -33.88393 | 148.75511 | 21119 ft | 362 kts | 111° |
| 2026-04-13 05:39 | -33.89044 | 148.78413 | 21120 ft | 362 kts | 111° |
| 2026-04-13 05:39 | -33.89701 | 148.81348 | 21120 ft | 362 kts | 111° |
| 2026-04-13 05:40 | -33.90358 | 148.84283 | 21119 ft | 362 kts | 111° |
| 2026-04-13 05:40 | -33.91013 | 148.87218 | 21120 ft | 362 kts | 111° |
| 2026-04-13 05:40 | -33.91655 | 148.90096 | 21115 ft | 361 kts | 111° |
| 2026-04-13 05:40 | -33.92314 | 148.93050 | 21117 ft | 360 kts | 111° |
| 2026-04-13 05:41 | -33.92964 | 148.95970 | 21118 ft | 360 kts | 111° |
| 2026-04-13 05:41 | -33.93612 | 148.98881 | 21119 ft | 361 kts | 111° |
| 2026-04-13 05:41 | -33.94265 | 149.01822 | 21116 ft | 361 kts | 111° |
| 2026-04-13 05:41 | -33.94910 | 149.04729 | 21118 ft | 361 kts | 111° |
| 2026-04-13 05:42 | -33.95559 | 149.07658 | 21111 ft | 361 kts | 111° |
| 2026-04-13 05:42 | -33.96207 | 149.10586 | 21113 ft | 361 kts | 111° |
| 2026-04-13 05:42 | -33.96853 | 149.13509 | 21117 ft | 361 kts | 111° |
| 2026-04-13 05:43 | -33.98145 | 149.19363 | 21117 ft | 360 kts | 111° |
| 2026-04-13 05:43 | -33.98785 | 149.22273 | 21120 ft | 360 kts | 111° |
| 2026-04-13 05:43 | -33.99432 | 149.25214 | 21117 ft | 360 kts | 111° |
| 2026-04-13 05:43 | -34.00069 | 149.28114 | 21118 ft | 359 kts | 111° |
| 2026-04-13 05:44 | -34.00708 | 149.31029 | 21121 ft | 359 kts | 111° |
| 2026-04-13 05:44 | -34.01350 | 149.33957 | 21120 ft | 359 kts | 111° |
| 2026-04-13 05:44 | -34.01994 | 149.36899 | 21121 ft | 359 kts | 111° |
| 2026-04-13 05:44 | -34.02627 | 149.39793 | 21118 ft | 359 kts | 111° |
| 2026-04-13 05:45 | -34.03268 | 149.42728 | 21119 ft | 359 kts | 111° |
| 2026-04-13 05:45 | -34.03898 | 149.45618 | 21117 ft | 359 kts | 111° |
| 2026-04-13 05:45 | -34.04536 | 149.48546 | 21120 ft | 359 kts | 111° |
| 2026-04-13 05:45 | -34.05171 | 149.51465 | 21120 ft | 359 kts | 111° |
| 2026-04-13 05:46 | -34.05799 | 149.54358 | 21118 ft | 359 kts | 112° |
| 2026-04-13 05:46 | -34.06437 | 149.57298 | 21120 ft | 359 kts | 112° |
| 2026-04-13 05:46 | -34.07047 | 149.60147 | 21069 ft | 341 kts | 111° |
| 2026-04-13 05:46 | -34.07615 | 149.62848 | 20700 ft | 328 kts | 112° |
| 2026-04-13 05:47 | -34.08175 | 149.65480 | 20286 ft | 317 kts | 112° |
| 2026-04-13 05:47 | -34.08718 | 149.68024 | 19881 ft | 307 kts | 112° |
| 2026-04-13 05:47 | -34.09237 | 149.70445 | 19483 ft | 298 kts | 112° |
| 2026-04-13 05:47 | -34.09748 | 149.72836 | 19075 ft | 289 kts | 112° |
| 2026-04-13 05:48 | -34.10189 | 149.74895 | 18718 ft | 281 kts | 113° |